Time;durP1;ratioP1;P1;durP2;ratioP2;P2;SDS_P1;SDS_P2;PMS_P1;PMS_P2;Temp;Humidity;BMP_temperature;BMP_pressure;BME280_temperature;BME280_humidity;BME280_pressure;Samples;Min_cycle;Max_cycle;Signal;HPM_P1;HPM_P2
2022/01/05 00:03:51;;;;;;;5.75;4.72;;;;;;;;;;10438932;27;20067;-58
2022/01/05 00:08:51;;;;;;;6.28;5.55;;;;;;;;;;10439452;27;20075;-58
2022/01/05 00:13:49;;;;;;;7.53;5.45;;;;;;;;;;10439024;27;20093;-57
2022/01/05 00:18:48;;;;;;;6.75;6.05;;;;;;;;;;10436949;27;20078;-58
2022/01/05 00:23:46;;;;;;;8.90;7.32;;;;;;;;;;10438315;27;20345;-58
2022/01/05 00:28:46;;;;;;;6.53;4.95;;;;;;;;;;10438818;27;20561;-58
2022/01/05 00:33:44;;;;;;;6.10;5.03;;;;;;;;;;10438594;27;20081;-58
2022/01/05 00:38:42;;;;;;;5.53;4.93;;;;;;;;;;10437382;27;20109;-58
2022/01/05 00:43:41;;;;;;;5.90;4.53;;;;;;;;;;10437927;27;20066;-58
2022/01/05 00:48:40;;;;;;;5.90;4.53;;;;;;;;;;10437821;27;20074;-58
2022/01/05 00:53:39;;;;;;;5.95;4.53;;;;;;;;;;10437366;27;20055;-58
2022/01/05 00:58:37;;;;;;;7.63;4.60;;;;;;;;;;10436362;27;20333;-58
2022/01/05 01:03:36;;;;;;;6.13;4.55;;;;;;;;;;10437752;27;20074;-58
2022/01/05 01:08:35;;;;;;;9.38;3.47;;;;;;;;;;10435558;27;20081;-58
2022/01/05 01:13:34;;;;;;;5.68;3.95;;;;;;;;;;10436110;27;20087;-58
2022/01/05 01:18:33;;;;;;;6.63;4.72;;;;;;;;;;10436600;27;20055;-58
2022/01/05 01:23:31;;;;;;;5.43;4.35;;;;;;;;;;10435237;27;20074;-58
2022/01/05 01:28:31;;;;;;;6.05;4.57;;;;;;;;;;10436336;27;20090;-58
2022/01/05 01:33:29;;;;;;;6.20;4.80;;;;;;;;;;10435393;27;20075;-58
2022/01/05 01:38:27;;;;;;;4.65;4.15;;;;;;;;;;10435222;27;20471;-58
2022/01/05 01:43:25;;;;;;;5.97;4.88;;;;;;;;;;10435884;27;20078;-58
2022/01/05 01:48:25;;;;;;;5.57;4.40;;;;;;;;;;10436089;27;20058;-56
2022/01/05 01:53:23;;;;;;;4.95;4.30;;;;;;;;;;10435560;27;20059;-58
2022/01/05 01:58:23;;;;;;;5.22;4.57;;;;;;;;;;10435204;27;20067;-58
2022/01/05 02:03:21;;;;;;;9.75;6.55;;;;;;;;;;10434958;27;20062;-57
2022/01/05 02:08:21;;;;;;;4.80;3.40;;;;;;;;;;10434036;27;20075;-58
2022/01/05 02:13:19;;;;;;;4.72;3.90;;;;;;;;;;10435966;27;20562;-59
2022/01/05 02:23:35;;;;;;;5.18;4.68;;;;;;;;;;10432913;27;20074;-59
2022/01/05 02:28:33;;;;;;;4.88;4.25;;;;;;;;;;10433467;27;20062;-59
2022/01/05 02:33:32;;;;;;;8.18;5.75;;;;;;;;;;10435529;27;20078;-59
2022/01/05 02:38:31;;;;;;;8.23;6.18;;;;;;;;;;10434745;27;20063;-59
2022/01/05 02:43:30;;;;;;;8.30;4.90;;;;;;;;;;10433479;27;20055;-59
2022/01/05 02:48:30;;;;;;;7.88;5.60;;;;;;;;;;10434119;27;20077;-59
2022/01/05 02:53:28;;;;;;;4.97;4.38;;;;;;;;;;10434884;28;20066;-59
2022/01/05 02:58:26;;;;;;;7.63;4.43;;;;;;;;;;10435250;28;20066;-59
2022/01/05 03:03:26;;;;;;;5.38;4.43;;;;;;;;;;10434731;28;20074;-59
2022/01/05 03:08:24;;;;;;;4.45;4.05;;;;;;;;;;10433050;28;20085;-59
2022/01/05 03:13:23;;;;;;;6.40;4.30;;;;;;;;;;10432860;28;20078;-59
2022/01/05 03:18:22;;;;;;;5.47;4.70;;;;;;;;;;10433960;28;20035;-60
2022/01/05 03:23:21;;;;;;;8.82;3.83;;;;;;;;;;10434180;28;20420;-58
2022/01/05 03:28:19;;;;;;;6.22;3.75;;;;;;;;;;10433842;28;20512;-58
2022/01/05 03:33:21;;;;;;;8.82;5.43;;;;;;;;;;10434493;28;20054;-59
2022/01/05 03:38:20;;;;;;;5.00;4.50;;;;;;;;;;10432415;28;20063;-58
2022/01/05 03:43:19;;;;;;;8.98;4.97;;;;;;;;;;10438646;27;20062;-59
2022/01/05 03:48:18;;;;;;;4.95;4.45;;;;;;;;;;10441375;27;20074;-58
2022/01/05 03:53:17;;;;;;;5.93;4.60;;;;;;;;;;10441956;27;20460;-57
2022/01/05 03:58:16;;;;;;;6.50;4.25;;;;;;;;;;10438117;27;20537;-59
2022/01/05 04:03:15;;;;;;;8.88;5.70;;;;;;;;;;10441575;27;20449;-58
2022/01/05 04:08:13;;;;;;;8.30;5.20;;;;;;;;;;10441092;27;20073;-59
2022/01/05 04:13:12;;;;;;;6.20;5.15;;;;;;;;;;10438829;27;20071;-59
2022/01/05 04:18:12;;;;;;;8.93;5.10;;;;;;;;;;10438137;27;20062;-59
2022/01/05 04:23:10;;;;;;;5.95;4.50;;;;;;;;;;10436700;27;20063;-59
2022/01/05 04:28:08;;;;;;;5.38;4.65;;;;;;;;;;10437789;27;20058;-59
2022/01/05 04:33:06;;;;;;;8.10;4.40;;;;;;;;;;10438337;27;20066;-59
2022/01/05 04:38:26;;;;;;;17.67;6.65;;;;;;;;;;10438684;27;20078;-58
2022/01/05 04:43:24;;;;;;;8.32;5.07;;;;;;;;;;10438006;27;20259;-59
2022/01/05 04:48:27;;;;;;;6.80;4.88;;;;;;;;;;10438327;27;20067;-59
2022/01/05 04:53:27;;;;;;;5.70;4.45;;;;;;;;;;10435742;27;20062;-59
2022/01/05 04:58:25;;;;;;;5.70;4.75;;;;;;;;;;10437194;27;20530;-58
2022/01/05 05:03:23;;;;;;;7.07;4.97;;;;;;;;;;10437350;27;20058;-58
2022/01/05 05:08:22;;;;;;;5.95;4.05;;;;;;;;;;10436234;27;20075;-56
2022/01/05 05:13:21;;;;;;;8.43;7.55;;;;;;;;;;10435375;27;20082;-58
2022/01/05 05:18:20;;;;;;;12.40;6.25;;;;;;;;;;10436765;27;20074;-58
2022/01/05 05:23:18;;;;;;;6.50;4.13;;;;;;;;;;10436620;27;20058;-55
2022/01/05 05:28:17;;;;;;;5.82;5.25;;;;;;;;;;10436765;27;20070;-58
2022/01/05 05:33:16;;;;;;;7.28;6.40;;;;;;;;;;10435405;27;20069;-59
2022/01/05 05:38:15;;;;;;;5.63;4.10;;;;;;;;;;10434969;27;20070;-58
2022/01/05 05:43:14;;;;;;;5.88;5.07;;;;;;;;;;10437293;27;20074;-58
2022/01/05 05:48:12;;;;;;;11.82;8.95;;;;;;;;;;10437338;27;20073;-59
2022/01/05 05:53:11;;;;;;;6.82;4.50;;;;;;;;;;10435381;27;20494;-59
2022/01/05 05:58:10;;;;;;;5.80;4.85;;;;;;;;;;10432516;27;20062;-59
2022/01/05 06:03:08;;;;;;;8.00;4.90;;;;;;;;;;10431208;27;20066;-57
2022/01/05 06:08:06;;;;;;;7.70;4.10;;;;;;;;;;10428609;27;20089;-58
2022/01/05 06:13:06;;;;;;;6.07;4.72;;;;;;;;;;10429002;27;20082;-59
2022/01/05 06:18:04;;;;;;;6.25;5.07;;;;;;;;;;10431927;27;20070;-58
2022/01/05 06:23:03;;;;;;;5.45;4.88;;;;;;;;;;10431906;27;20511;-58
2022/01/05 06:28:01;;;;;;;6.45;4.57;;;;;;;;;;10431779;27;20063;-58
2022/01/05 06:33:01;;;;;;;10.10;5.07;;;;;;;;;;10433813;27;20499;-59
2022/01/05 06:37:59;;;;;;;5.60;4.60;;;;;;;;;;10434760;27;20550;-58
2022/01/05 06:42:59;;;;;;;6.28;5.22;;;;;;;;;;10432412;27;20063;-58
2022/01/05 06:47:58;;;;;;;5.57;4.45;;;;;;;;;;10432674;27;20136;-59
2022/01/05 06:52:58;;;;;;;6.32;4.63;;;;;;;;;;10432575;27;20120;-57
2022/01/05 06:57:56;;;;;;;5.93;5.32;;;;;;;;;;10432836;28;20059;-59
2022/01/05 07:02:54;;;;;;;5.35;4.72;;;;;;;;;;10434086;28;20070;-58
2022/01/05 07:07:53;;;;;;;5.30;4.30;;;;;;;;;;10433239;28;20070;-58
2022/01/05 07:12:53;;;;;;;6.50;4.65;;;;;;;;;;10429817;28;20082;-57
2022/01/05 07:17:51;;;;;;;7.28;5.57;;;;;;;;;;10437305;27;20073;-59
2022/01/05 07:22:49;;;;;;;10.63;6.65;;;;;;;;;;10439839;27;20066;-58
2022/01/05 07:27:48;;;;;;;79.75;48.17;;;;;;;;;;10440846;27;20559;-57
2022/01/05 07:32:47;;;;;;;74.15;50.38;;;;;;;;;;10435208;27;20063;-58
2022/01/05 07:37:46;;;;;;;78.22;49.92;;;;;;;;;;10436612;27;20108;-58
2022/01/05 07:42:44;;;;;;;64.70;38.67;;;;;;;;;;10434258;27;20069;-58
2022/01/05 07:47:42;;;;;;;60.53;45.58;;;;;;;;;;10434265;27;20217;-58
2022/01/05 07:52:42;;;;;;;55.65;42.00;;;;;;;;;;10433243;27;20067;-58
2022/01/05 07:57:40;;;;;;;8.98;7.30;;;;;;;;;;10433249;27;20534;-59
2022/01/05 08:02:38;;;;;;;7.85;6.82;;;;;;;;;;10435615;27;20077;-58
2022/01/05 08:07:37;;;;;;;9.55;5.97;;;;;;;;;;10436463;27;20100;-59
2022/01/05 08:12:36;;;;;;;8.93;5.75;;;;;;;;;;10438210;27;20071;-59
2022/01/05 08:17:35;;;;;;;11.63;6.80;;;;;;;;;;10440289;27;20081;-59
2022/01/05 08:22:33;;;;;;;7.40;6.40;;;;;;;;;;10439493;27;20491;-59
2022/01/05 08:27:31;;;;;;;12.48;6.35;;;;;;;;;;10437379;27;20077;-58
2022/01/05 08:32:31;;;;;;;10.98;7.35;;;;;;;;;;10438056;27;20070;-59
2022/01/05 08:37:29;;;;;;;12.68;7.95;;;;;;;;;;10437613;27;20062;-59
2022/01/05 08:42:27;;;;;;;8.48;6.22;;;;;;;;;;10439922;27;20059;-60
2022/01/05 08:47:26;;;;;;;11.43;6.55;;;;;;;;;;10438326;27;20077;-59
2022/01/05 08:52:25;;;;;;;11.40;8.38;;;;;;;;;;10439325;27;20518;-59
2022/01/05 08:57:24;;;;;;;13.75;8.75;;;;;;;;;;10437400;27;20331;-59
2022/01/05 09:02:22;;;;;;;13.15;8.50;;;;;;;;;;10437762;27;20452;-59
2022/01/05 09:07:20;;;;;;;13.60;9.35;;;;;;;;;;10437881;27;20159;-59
2022/01/05 09:12:20;;;;;;;12.57;9.82;;;;;;;;;;10437077;27;20070;-59
2022/01/05 09:17:18;;;;;;;19.67;12.27;;;;;;;;;;10438731;27;20043;-59
2022/01/05 09:22:16;;;;;;;22.60;14.32;;;;;;;;;;10438685;27;20085;-59
2022/01/05 09:27:21;;;;;;;21.08;14.48;;;;;;;;;;10437556;27;20075;-58
2022/01/05 09:32:19;;;;;;;26.60;14.88;;;;;;;;;;10435813;27;20512;-59
2022/01/05 09:37:22;;;;;;;16.13;9.75;;;;;;;;;;10436528;27;20079;-59
2022/01/05 09:42:22;;;;;;;21.20;15.15;;;;;;;;;;10418649;27;20118;-58
2022/01/05 09:47:41;;;;;;;14.38;11.40;;;;;;;;;;10435769;27;21356;-54
2022/01/05 09:52:40;;;;;;;13.32;9.60;;;;;;;;;;10429238;27;20071;-56
2022/01/05 09:57:40;;;;;;;11.35;9.10;;;;;;;;;;10435559;27;20065;-58
2022/01/05 10:02:38;;;;;;;11.63;7.95;;;;;;;;;;10432852;27;20075;-58
2022/01/05 10:07:38;;;;;;;11.10;7.22;;;;;;;;;;10433267;27;20070;-59
2022/01/05 10:12:36;;;;;;;11.68;8.30;;;;;;;;;;10435683;27;20522;-59
2022/01/05 10:17:41;;;;;;;13.95;8.63;;;;;;;;;;10434182;27;20077;-60
2022/01/05 10:22:40;;;;;;;51.78;32.63;;;;;;;;;;10434737;27;20059;-55
2022/01/05 10:27:40;;;;;;;11.48;8.68;;;;;;;;;;10434371;27;20150;-57
2022/01/05 10:32:38;;;;;;;12.50;10.95;;;;;;;;;;10434421;27;20062;-57
2022/01/05 10:37:38;;;;;;;9.80;8.68;;;;;;;;;;10433998;27;20059;-59
2022/01/05 10:42:37;;;;;;;15.38;11.25;;;;;;;;;;10435034;27;20059;-59
2022/01/05 10:47:36;;;;;;;8.60;7.45;;;;;;;;;;10434705;27;20071;-59
2022/01/05 10:52:35;;;;;;;11.15;8.27;;;;;;;;;;10432488;27;20179;-58
2022/01/05 10:57:34;;;;;;;9.40;7.00;;;;;;;;;;10432531;28;20058;-59
2022/01/05 11:02:34;;;;;;;19.92;14.05;;;;;;;;;;10431243;28;20071;-59
2022/01/05 11:07:36;;;;;;;13.10;8.68;;;;;;;;;;10433576;28;20074;-59
2022/01/05 11:12:37;;;;;;;15.15;9.55;;;;;;;;;;10434579;28;20086;-59
2022/01/05 11:17:35;;;;;;;102.65;51.90;;;;;;;;;;10433049;28;20075;-59
2022/01/05 11:22:33;;;;;;;45.42;26.10;;;;;;;;;;10433958;28;20038;-59
2022/01/05 11:27:35;;;;;;;18.52;14.50;;;;;;;;;;10433272;28;20078;-60
2022/01/05 11:32:35;;;;;;;12.35;8.13;;;;;;;;;;10433659;28;20074;-60
2022/01/05 11:37:34;;;;;;;19.55;10.07;;;;;;;;;;10433541;28;20128;-59
2022/01/05 11:42:33;;;;;;;12.35;9.05;;;;;;;;;;10433020;28;20074;-59
2022/01/05 11:47:32;;;;;;;12.80;7.50;;;;;;;;;;10432204;28;20463;-60
2022/01/05 11:53:01;;;;;;;14.52;8.77;;;;;;;;;;10432365;28;20095;-59
2022/01/05 11:58:16;;;;;;;19.92;10.68;;;;;;;;;;10325353;28;20078;-59
2022/01/05 12:03:14;;;;;;;;;;;;;;;;;;10437430;27;20071;-59
2022/01/05 12:08:27;;;;;;;13.25;9.98;;;;;;;;;;10440518;27;20039;-59
2022/01/05 12:13:37;;;;;;;32.72;26.13;;;;;;;;;;10440925;27;20113;-59
2022/01/05 12:18:38;;;;;;;22.20;13.23;;;;;;;;;;10441066;27;20058;-59
2022/01/05 12:23:50;;;;;;;15.23;10.10;;;;;;;;;;10441083;27;20070;-60
2022/01/05 12:28:52;;;;;;;14.45;7.57;;;;;;;;;;10439464;27;20070;-60
2022/01/05 12:33:52;;;;;;;22.00;18.92;;;;;;;;;;10440055;27;20138;-59
2022/01/05 12:38:54;;;;;;;18.83;13.80;;;;;;;;;;10439664;27;20066;-59
2022/01/05 12:43:52;;;;;;;23.10;14.82;;;;;;;;;;10420804;27;20075;-60
2022/01/05 12:49:12;;;;;;;22.27;12.93;;;;;;;;;;10440032;27;20074;-60
2022/01/05 12:54:12;;;;;;;16.52;11.98;;;;;;;;;;10440015;27;20070;-58
2022/01/05 12:59:11;;;;;;;31.92;21.10;;;;;;;;;;10440128;27;20067;-59
2022/01/05 13:04:10;;;;;;;28.42;16.92;;;;;;;;;;10439520;27;20086;-59
2022/01/05 13:09:09;;;;;;;25.77;16.08;;;;;;;;;;10420021;27;20074;-59
2022/01/05 13:14:20;;;;;;;50.95;37.30;;;;;;;;;;10436707;27;20123;-59
2022/01/05 13:19:25;;;;;;;22.42;14.20;;;;;;;;;;10436437;27;20075;-59
2022/01/05 13:24:26;;;;;;;25.38;21.38;;;;;;;;;;10435818;27;20039;-59
2022/01/05 13:29:28;;;;;;;27.27;16.55;;;;;;;;;;10436589;27;20075;-59
2022/01/05 13:34:33;;;;;;;41.08;27.35;;;;;;;;;;10437402;27;20522;-59
2022/01/05 13:39:39;;;;;;;62.03;41.28;;;;;;;;;;10438507;27;20069;-59
2022/01/05 13:44:39;;;;;;;66.43;43.03;;;;;;;;;;10436097;27;20078;-59
2022/01/05 13:49:37;;;;;;;61.95;38.33;;;;;;;;;;10435171;27;20074;-59
2022/01/05 13:54:37;;;;;;;100.03;60.80;;;;;;;;;;10436365;27;20074;-59
2022/01/05 13:59:41;;;;;;;93.75;61.53;;;;;;;;;;10436093;27;20508;-59
2022/01/05 14:04:53;;;;;;;73.93;46.20;;;;;;;;;;10434985;27;20184;-60
2022/01/05 14:10:05;;;;;;;97.63;59.70;;;;;;;;;;10435139;27;20074;-59
2022/01/05 14:15:06;;;;;;;61.10;36.42;;;;;;;;;;10432650;27;20086;-60
2022/01/05 14:20:14;;;;;;;99.35;61.97;;;;;;;;;;10432262;27;20077;-59
2022/01/05 14:25:13;;;;;;;72.95;39.13;;;;;;;;;;10436289;27;20063;-59
2022/01/05 14:30:13;;;;;;;58.60;33.75;;;;;;;;;;10435889;27;20070;-59
2022/01/05 14:35:15;;;;;;;67.05;41.20;;;;;;;;;;10434807;27;20499;-59
2022/01/05 14:40:21;;;;;;;38.50;22.70;;;;;;;;;;10434617;27;20507;-59
2022/01/05 14:45:21;;;;;;;41.83;26.77;;;;;;;;;;10430219;27;20070;-59
2022/01/05 14:50:19;;;;;;;38.92;27.52;;;;;;;;;;10434500;27;20066;-59
2022/01/05 14:55:19;;;;;;;42.70;28.90;;;;;;;;;;10433608;27;20074;-59
2022/01/05 15:00:18;;;;;;;38.38;26.85;;;;;;;;;;10433456;28;20078;-60
2022/01/05 15:05:17;;;;;;;38.95;25.88;;;;;;;;;;10433310;28;20058;-60
2022/01/05 15:10:16;;;;;;;42.90;31.23;;;;;;;;;;10434796;28;20067;-60
2022/01/05 15:15:14;;;;;;;43.10;31.15;;;;;;;;;;10434168;28;20067;-59
2022/01/05 15:20:12;;;;;;;44.60;32.80;;;;;;;;;;10432958;28;20063;-59
2022/01/05 15:25:12;;;;;;;83.53;58.38;;;;;;;;;;10432917;28;20066;-60
2022/01/05 15:30:11;;;;;;;101.70;72.75;;;;;;;;;;10433428;28;20067;-60
2022/01/05 15:35:12;;;;;;;80.75;56.30;;;;;;;;;;10433736;27;20488;-60
2022/01/05 15:40:13;;;;;;;82.97;55.05;;;;;;;;;;10440356;27;20109;-59
2022/01/05 15:45:11;;;;;;;81.60;55.90;;;;;;;;;;10441279;27;20058;-60
2022/01/05 15:50:10;;;;;;;73.38;45.67;;;;;;;;;;10442164;27;20558;-60
2022/01/05 15:55:14;;;;;;;36.72;26.50;;;;;;;;;;10442298;27;20062;-59
2022/01/05 16:05:27;;;;;;;29.50;18.88;;;;;;;;;;10400185;27;20071;-60
2022/01/05 16:10:25;;;;;;;20.63;16.38;;;;;;;;;;10437407;27;20213;-60
2022/01/05 16:15:25;;;;;;;64.72;42.42;;;;;;;;;;10440228;27;20040;-59
2022/01/05 16:20:23;;;;;;;79.03;44.38;;;;;;;;;;10440012;27;20538;-59
2022/01/05 16:25:22;;;;;;;51.92;28.48;;;;;;;;;;10438117;27;20063;-60
2022/01/05 16:30:20;;;;;;;21.92;15.88;;;;;;;;;;10440188;27;20492;-59
2022/01/05 16:35:20;;;;;;;13.27;9.80;;;;;;;;;;10440424;27;20507;-60
2022/01/05 16:40:18;;;;;;;13.63;9.70;;;;;;;;;;10438351;27;20074;-60
2022/01/05 16:45:17;;;;;;;34.25;29.67;;;;;;;;;;10440148;27;20063;-60
2022/01/05 16:50:15;;;;;;;9.00;7.90;;;;;;;;;;10430124;27;20082;-58
2022/01/05 16:55:18;;;;;;;20.45;10.85;;;;;;;;;;10431906;27;20058;-58
2022/01/05 17:00:27;;;;;;;27.58;18.85;;;;;;;;;;10431913;27;20471;-58
2022/01/05 17:05:25;;;;;;;95.95;58.03;;;;;;;;;;10431284;27;20074;-58
2022/01/05 17:10:25;;;;;;;18.52;13.55;;;;;;;;;;10427424;27;20103;-59
2022/01/05 17:15:24;;;;;;;28.65;19.85;;;;;;;;;;10424614;27;20130;-59
2022/01/05 17:20:24;;;;;;;48.20;27.50;;;;;;;;;;10424786;27;20066;-59
2022/01/05 17:25:22;;;;;;;14.95;10.27;;;;;;;;;;10424154;27;20125;-59
2022/01/05 17:30:22;;;;;;;43.30;23.95;;;;;;;;;;10429723;27;20077;-59
2022/01/05 17:35:21;;;;;;;16.73;12.88;;;;;;;;;;10431059;27;20469;-59
2022/01/05 17:40:19;;;;;;;15.82;11.98;;;;;;;;;;10428898;27;20070;-59
2022/01/05 17:45:20;;;;;;;27.08;21.13;;;;;;;;;;10429253;27;20071;-58
2022/01/05 17:50:20;;;;;;;35.22;21.20;;;;;;;;;;10428478;27;20133;-59
2022/01/05 17:55:32;;;;;;;19.10;15.43;;;;;;;;;;10429671;27;20413;-59
2022/01/05 18:00:31;;;;;;;13.70;10.52;;;;;;;;;;10432862;27;20070;-59
2022/01/05 18:05:31;;;;;;;26.92;17.50;;;;;;;;;;10432729;27;20067;-59
2022/01/05 18:10:29;;;;;;;11.32;9.38;;;;;;;;;;10431260;27;20504;-59
2022/01/05 18:15:28;;;;;;;16.52;12.18;;;;;;;;;;10434303;27;20077;-60
2022/01/05 18:20:29;;;;;;;16.25;13.38;;;;;;;;;;10429969;27;20061;-59
2022/01/05 18:25:28;;;;;;;11.65;9.65;;;;;;;;;;10430634;27;20077;-58
2022/01/05 18:30:27;;;;;;;13.27;9.73;;;;;;;;;;10427795;27;20074;-60
2022/01/05 18:35:25;;;;;;;13.65;9.55;;;;;;;;;;10431465;27;20433;-60
2022/01/05 18:40:24;;;;;;;12.40;10.15;;;;;;;;;;10431875;27;20077;-60
2022/01/05 18:45:24;;;;;;;17.50;12.38;;;;;;;;;;10431833;27;20065;-60
2022/01/05 18:50:24;;;;;;;18.23;12.02;;;;;;;;;;10433602;27;20071;-60
2022/01/05 18:55:23;;;;;;;13.15;8.98;;;;;;;;;;10435045;27;20039;-60
2022/01/05 19:00:21;;;;;;;11.48;8.63;;;;;;;;;;10433633;28;20062;-60
2022/01/05 19:05:21;;;;;;;12.02;8.80;;;;;;;;;;10432406;28;20075;-59
2022/01/05 19:10:19;;;;;;;42.10;27.25;;;;;;;;;;10429022;27;20516;-59
2022/01/05 19:15:37;;;;;;;11.50;9.45;;;;;;;;;;10439046;27;20059;-58
2022/01/05 19:20:37;;;;;;;13.63;10.23;;;;;;;;;;10441536;27;20856;-59
2022/01/05 19:25:35;;;;;;;18.45;12.10;;;;;;;;;;10440677;27;20066;-59
2022/01/05 19:30:36;;;;;;;13.70;9.43;;;;;;;;;;10437491;27;20105;-59
2022/01/05 19:35:34;;;;;;;14.05;9.43;;;;;;;;;;10435229;27;20078;-59
2022/01/05 19:40:35;;;;;;;9.63;8.20;;;;;;;;;;10437343;27;20071;-59
2022/01/05 19:45:34;;;;;;;9.70;7.88;;;;;;;;;;10435419;27;20059;-60
2022/01/05 19:50:35;;;;;;;8.40;7.30;;;;;;;;;;10433429;27;20066;-58
2022/01/05 19:55:37;;;;;;;78.78;48.10;;;;;;;;;;10417508;27;20071;-60
2022/01/05 20:00:38;;;;;;;18.80;13.73;;;;;;;;;;10436879;27;20051;-59
2022/01/05 20:05:37;;;;;;;17.15;11.77;;;;;;;;;;10438462;27;20069;-58
2022/01/05 20:10:37;;;;;;;15.07;9.30;;;;;;;;;;10419182;27;20078;-58
2022/01/05 20:15:38;;;;;;;8.35;7.50;;;;;;;;;;10436869;27;20074;-58
2022/01/05 20:20:37;;;;;;;10.02;7.75;;;;;;;;;;10438347;27;20062;-58
2022/01/05 20:25:37;;;;;;;12.20;9.90;;;;;;;;;;10439624;27;20480;-59
2022/01/05 20:30:35;;;;;;;11.45;8.80;;;;;;;;;;10438359;27;20397;-59
2022/01/05 20:35:36;;;;;;;19.73;14.32;;;;;;;;;;10438966;27;20062;-59
2022/01/05 20:40:35;;;;;;;8.80;6.07;;;;;;;;;;10436123;27;20113;-58
2022/01/05 20:45:34;;;;;;;10.27;6.50;;;;;;;;;;10435154;27;20062;-58
2022/01/05 20:50:33;;;;;;;9.30;6.85;;;;;;;;;;10438133;27;20066;-58
2022/01/05 20:55:32;;;;;;;7.85;5.28;;;;;;;;;;10436730;27;20075;-57
2022/01/05 21:00:31;;;;;;;9.05;7.32;;;;;;;;;;10436062;27;20059;-58
2022/01/05 21:05:31;;;;;;;9.98;7.82;;;;;;;;;;10434568;27;20078;-59
2022/01/05 21:10:29;;;;;;;23.58;14.90;;;;;;;;;;10437076;27;20097;-60
2022/01/05 21:15:29;;;;;;;10.30;7.60;;;;;;;;;;10435527;27;20105;-60
2022/01/05 21:20:28;;;;;;;11.00;8.18;;;;;;;;;;10431366;27;20055;-60
2022/01/05 21:25:27;;;;;;;7.97;6.70;;;;;;;;;;10434759;27;20112;-60
2022/01/05 21:30:27;;;;;;;7.75;6.97;;;;;;;;;;10432182;27;20071;-57
2022/01/05 21:35:25;;;;;;;14.23;10.23;;;;;;;;;;10431581;27;20066;-59
2022/01/05 21:40:24;;;;;;;16.73;12.57;;;;;;;;;;10431856;27;20078;-60
2022/01/05 21:45:24;;;;;;;7.97;6.53;;;;;;;;;;10435890;27;20067;-59
2022/01/05 21:50:22;;;;;;;15.27;6.82;;;;;;;;;;10436392;27;20059;-60
2022/01/05 21:55:20;;;;;;;7.60;5.80;;;;;;;;;;10434558;27;20070;-59
2022/01/05 22:00:19;;;;;;;6.88;5.72;;;;;;;;;;10435926;27;20107;-59
2022/01/05 22:05:19;;;;;;;6.25;5.65;;;;;;;;;;10436393;27;20073;-59
2022/01/05 22:10:17;;;;;;;6.55;5.63;;;;;;;;;;10437042;27;20155;-59
2022/01/05 22:15:16;;;;;;;6.60;4.90;;;;;;;;;;10434243;27;20190;-59
2022/01/05 22:20:16;;;;;;;8.82;6.65;;;;;;;;;;10434431;27;20495;-60
2022/01/05 22:25:16;;;;;;;10.70;8.30;;;;;;;;;;10435619;27;20063;-59
2022/01/05 22:30:14;;;;;;;11.55;7.18;;;;;;;;;;10435804;27;20071;-60
2022/01/05 22:35:13;;;;;;;10.77;5.80;;;;;;;;;;10435377;27;20074;-59
2022/01/05 22:40:12;;;;;;;6.13;5.53;;;;;;;;;;10432552;27;20059;-59
2022/01/05 22:45:11;;;;;;;7.97;5.53;;;;;;;;;;10435470;27;20062;-59
2022/01/05 22:50:10;;;;;;;8.60;6.00;;;;;;;;;;10435747;27;20069;-59
2022/01/05 22:55:10;;;;;;;8.05;5.80;;;;;;;;;;10435807;27;20156;-60
2022/01/05 23:00:22;;;;;;;;;;;;;;;;;;10435187;28;20071;-59
2022/01/05 23:05:21;;;;;;;7.40;5.10;;;;;;;;;;10434508;28;20347;-59
2022/01/05 23:10:20;;;;;;;9.07;5.25;;;;;;;;;;10431139;28;20075;-59
2022/01/05 23:15:19;;;;;;;5.38;4.88;;;;;;;;;;10432677;28;20470;-59
2022/01/05 23:20:18;;;;;;;5.85;4.85;;;;;;;;;;10431456;28;20067;-60
2022/01/05 23:25:18;;;;;;;8.10;5.22;;;;;;;;;;10429755;28;20067;-60
2022/01/05 23:30:17;;;;;;;6.90;5.30;;;;;;;;;;10432994;28;20063;-60
2022/01/05 23:35:36;;;;;;;8.73;5.35;;;;;;;;;;10432695;28;20075;-60
2022/01/05 23:40:37;;;;;;;8.77;5.53;;;;;;;;;;10432187;28;20070;-60
2022/01/05 23:45:36;;;;;;;6.07;5.15;;;;;;;;;;10413087;28;20055;-59
2022/01/05 23:50:34;;;;;;;6.75;5.80;;;;;;;;;;10431415;28;20059;-59
2022/01/05 23:55:33;;;;;;;7.30;5.20;;;;;;;;;;10430644;28;20074;-59
